Time;durP1;ratioP1;P1;durP2;ratioP2;P2;SDS_P1;SDS_P2;PMS_P1;PMS_P2;Temp;Humidity;BMP_temperature;BMP_pressure;BME280_temperature;BME280_humidity;BME280_pressure;Samples;Min_cycle;Max_cycle;Signal;HPM_P1;HPM_P2
2022/10/03 00:02:01;;;;;;;25.00;13.43;;;13.50;99.90;;;;;;5108536;27;20419;-76
2022/10/03 00:05:20;;;;;;;21.60;12.83;;;13.40;99.90;;;;;;5106359;28;20489;-76
2022/10/03 00:08:18;;;;;;;20.03;12.00;;;13.50;99.90;;;;;;5104547;27;21056;-76
2022/10/03 00:11:18;;;;;;;21.77;11.07;;;13.60;99.90;;;;;;5108546;27;20468;-76
2022/10/03 00:14:12;;;;;;;18.87;12.13;;;13.50;99.90;;;;;;5108144;27;21048;-77
2022/10/03 00:17:06;;;;;;;19.40;11.80;;;13.50;99.90;;;;;;5112253;27;20962;-77
2022/10/03 00:20:01;;;;;;;16.70;10.47;;;13.50;99.90;;;;;;5105060;27;20469;-76
2022/10/03 00:22:55;;;;;;;20.90;10.70;;;13.50;99.90;;;;;;5111577;27;20511;-76
2022/10/03 00:25:49;;;;;;;19.10;10.13;;;13.50;99.90;;;;;;5106966;28;20944;-76
2022/10/03 00:29:00;;;;;;;17.60;10.27;;;13.60;99.90;;;;;;5101156;28;20455;-76
2022/10/03 00:31:56;;;;;;;14.07;10.10;;;13.60;99.90;;;;;;5108957;27;20541;-75
2022/10/03 00:34:57;;;;;;;17.00;9.27;;;13.50;99.90;;;;;;5119479;27;20509;-76
2022/10/03 00:37:49;;;;;;;28.57;10.50;;;13.40;99.90;;;;;;5108764;27;21421;-76
2022/10/03 00:41:11;;;;;;;13.50;9.67;;;13.30;99.90;;;;;;5105846;28;20448;-76
2022/10/03 00:44:36;;;;;;;16.70;8.70;;;13.30;99.90;;;;;;5101040;27;20419;-76
2022/10/03 00:47:54;;;;;;;15.87;9.60;;;13.20;99.90;;;;;;5106721;28;20843;-75
2022/10/03 00:51:11;;;;;;;16.70;8.07;;;12.90;99.90;;;;;;5122496;27;20488;-76
2022/10/03 00:54:09;;;;;;;12.30;8.37;;;12.80;99.90;;;;;;5076788;28;20836;-76
2022/10/03 00:57:12;;;;;;;15.37;8.90;;;12.80;99.90;;;;;;5111618;28;20444;-76
2022/10/03 01:00:19;;;;;;;12.20;8.57;;;12.70;99.90;;;;;;5111611;27;20548;-76
2022/10/03 01:03:31;;;;;;;12.90;8.20;;;12.60;99.90;;;;;;5117899;27;20439;-76
2022/10/03 01:06:28;;;;;;;16.63;8.63;;;12.40;99.90;;;;;;5113852;27;20435;-75
2022/10/03 01:09:40;;;;;;;15.80;8.37;;;12.30;99.90;;;;;;5114756;27;20470;-75
2022/10/03 01:12:54;;;;;;;16.23;7.80;;;12.20;99.90;;;;;;5113363;27;20424;-76
2022/10/03 01:15:51;;;;;;;19.33;6.83;;;12.20;99.90;;;;;;5110350;27;20445;-76
2022/10/03 01:18:47;;;;;;;13.00;6.80;;;12.10;99.90;;;;;;5106879;27;20543;-76
2022/10/03 01:21:43;;;;;;;14.93;7.37;;;12.10;99.90;;;;;;5109327;27;20925;-76
2022/10/03 01:24:50;;;;;;;14.23;6.90;;;12.00;99.90;;;;;;5120916;27;20448;-76
2022/10/03 01:30:50;;;;;;;9.80;6.10;;;11.90;99.90;;;;;;5115209;27;20527;-76
2022/10/03 01:33:42;;;;;;;10.67;7.10;;;11.80;99.90;;;;;;5118855;27;20440;-76
2022/10/03 01:36:34;;;;;;;15.90;7.53;;;11.80;99.90;;;;;;5116319;27;20468;-76
2022/10/03 01:39:28;;;;;;;18.63;7.40;;;11.70;99.90;;;;;;5106743;27;20452;-75
2022/10/03 01:42:30;;;;;;;11.73;5.87;;;11.60;99.90;;;;;;5114053;27;20522;-76
2022/10/03 01:45:26;;;;;;;11.63;6.57;;;11.60;99.90;;;;;;5118695;27;20939;-76
2022/10/03 01:48:19;;;;;;;10.57;7.20;;;11.70;99.90;;;;;;5108851;27;20461;-76
2022/10/03 01:51:10;;;;;;;11.13;7.83;;;11.60;99.90;;;;;;5119631;27;20463;-76
2022/10/03 01:54:08;;;;;;;15.57;7.63;;;11.60;99.90;;;;;;5112199;27;20441;-76
2022/10/03 01:57:01;;;;;;;16.90;8.10;;;11.60;99.90;;;;;;5111241;27;20444;-76
2022/10/03 01:59:54;;;;;;;10.20;7.80;;;11.50;99.90;;;;;;5114100;27;20471;-75
2022/10/03 02:02:45;;;;;;;10.27;6.00;;;11.50;99.90;;;;;;5107071;27;20826;-76
2022/10/03 02:05:47;;;;;;;9.50;6.77;;;11.60;99.90;;;;;;5111169;27;20452;-76
2022/10/03 02:08:47;;;;;;;15.23;6.70;;;11.60;99.90;;;;;;5110952;27;20594;-76
2022/10/03 02:11:39;;;;;;;9.20;5.90;;;11.50;99.90;;;;;;5110747;28;20484;-76
2022/10/03 02:14:32;;;;;;;11.20;6.37;;;11.50;99.90;;;;;;5112980;27;20407;-76
2022/10/03 02:17:27;;;;;;;10.33;5.97;;;11.50;99.90;;;;;;5109598;27;20518;-76
2022/10/03 02:20:24;;;;;;;7.07;5.30;;;11.50;99.90;;;;;;5116812;27;20466;-76
2022/10/03 02:23:24;;;;;;;8.67;5.57;;;11.40;99.90;;;;;;5116876;27;20444;-75
2022/10/03 02:26:35;;;;;;;9.07;6.70;;;11.30;99.90;;;;;;5104592;27;20423;-75
2022/10/03 02:29:56;;;;;;;9.67;6.23;;;11.20;99.90;;;;;;5114177;27;20480;-76
2022/10/03 02:33:21;;;;;;;9.57;6.20;;;11.10;99.90;;;;;;5113242;27;20419;-75
2022/10/03 02:36:40;;;;;;;11.37;6.37;;;11.10;99.90;;;;;;5105649;27;20442;-75
2022/10/03 02:40:07;;;;;;;6.90;6.00;;;11.10;99.90;;;;;;5101289;27;20623;-76
2022/10/03 02:43:42;;;;;;;13.97;5.60;;;11.20;99.90;;;;;;5118424;27;20441;-76
2022/10/03 02:47:04;;;;;;;7.87;5.63;;;11.10;99.90;;;;;;5031109;28;21022;-76
2022/10/03 02:50:14;;;;;;;22.70;5.73;;;11.10;99.90;;;;;;5106952;27;20457;-76
2022/10/03 02:53:32;;;;;;;11.03;5.53;;;11.10;99.90;;;;;;5107412;27;20445;-76
2022/10/03 02:56:50;;;;;;;11.03;6.87;;;11.00;99.90;;;;;;5112362;27;20913;-76
2022/10/03 03:00:10;;;;;;;27.20;6.40;;;11.10;99.90;;;;;;5125956;27;21036;-75
2022/10/03 03:03:28;;;;;;;14.27;6.23;;;11.10;99.90;;;;;;5104025;27;20440;-76
2022/10/03 03:06:42;;;;;;;15.73;5.83;;;11.10;99.90;;;;;;5113212;27;20449;-76
2022/10/03 03:09:57;;;;;;;7.53;5.80;;;11.20;99.90;;;;;;5126065;27;20447;-75
2022/10/03 03:13:11;;;;;;;37.77;7.63;;;11.20;99.90;;;;;;5111416;27;20490;-76
2022/10/03 03:16:42;;;;;;;17.13;5.60;;;11.20;99.90;;;;;;5112417;27;20472;-75
2022/10/03 03:20:01;;;;;;;7.40;5.27;;;11.20;99.90;;;;;;5077083;27;20458;-76
2022/10/03 03:23:06;;;;;;;19.03;6.10;;;11.20;99.90;;;;;;5108274;27;20497;-76
2022/10/03 03:26:12;;;;;;;14.63;4.53;;;11.10;99.90;;;;;;5106180;27;20490;-76
2022/10/03 03:29:09;;;;;;;13.17;5.23;;;11.00;99.90;;;;;;5113027;27;20476;-76
2022/10/03 03:32:04;;;;;;;8.80;5.90;;;10.80;99.90;;;;;;5103845;27;20468;-76
2022/10/03 03:34:58;;;;;;;7.60;6.00;;;10.70;99.90;;;;;;5107758;27;20439;-76
2022/10/03 03:37:52;;;;;;;9.00;4.67;;;10.70;99.90;;;;;;5108242;27;20453;-76
2022/10/03 03:40:45;;;;;;;9.40;4.70;;;10.70;99.90;;;;;;5110246;27;20587;-76
2022/10/03 03:43:49;;;;;;;39.30;6.23;;;10.70;99.90;;;;;;5103252;27;20453;-75
2022/10/03 03:46:46;;;;;;;6.30;5.47;;;10.60;99.90;;;;;;5105720;27;20513;-76
2022/10/03 03:49:46;;;;;;;11.10;5.20;;;10.70;99.90;;;;;;5101505;28;20481;-76
2022/10/03 03:52:46;;;;;;;6.37;4.00;;;10.80;99.90;;;;;;5103170;28;20620;-75
2022/10/03 03:56:05;;;;;;;5.13;4.30;;;10.80;99.90;;;;;;5114614;27;20428;-75
2022/10/03 03:59:00;;;;;;;22.97;4.10;;;10.80;99.90;;;;;;5119944;27;20933;-76
2022/10/03 04:01:59;;;;;;;27.23;4.70;;;10.80;99.90;;;;;;5109029;27;20414;-75
2022/10/03 04:04:56;;;;;;;7.90;5.17;;;10.60;99.90;;;;;;5111019;27;20474;-75
2022/10/03 04:07:53;;;;;;;7.17;5.67;;;10.50;99.90;;;;;;5107140;27;20423;-76
2022/10/03 04:10:53;;;;;;;9.63;6.10;;;10.50;99.90;;;;;;5100758;28;20435;-75
2022/10/03 04:13:59;;;;;;;7.20;5.17;;;10.60;99.90;;;;;;5110830;27;20486;-76
2022/10/03 04:20:19;;;;;;;10.50;6.07;;;10.70;99.90;;;;;;5099992;27;20519;-75
2022/10/03 04:23:22;;;;;;;7.43;5.93;;;10.80;99.90;;;;;;5107916;28;20441;-74
2022/10/03 04:26:22;;;;;;;13.93;6.50;;;10.80;99.90;;;;;;5105127;28;20456;-76
2022/10/03 04:29:39;;;;;;;55.03;6.60;;;10.80;99.90;;;;;;5111152;27;20960;-76
2022/10/03 04:32:45;;;;;;;10.10;6.90;;;10.70;99.90;;;;;;5112093;27;20472;-76
2022/10/03 04:36:13;;;;;;;58.17;6.50;;;10.70;99.90;;;;;;5106969;27;20434;-75
2022/10/03 04:39:07;;;;;;;57.60;6.70;;;10.80;99.90;;;;;;5110858;27;20450;-76
2022/10/03 04:41:57;;;;;;;62.63;6.97;;;10.60;99.90;;;;;;5114465;28;20440;-75
2022/10/03 04:45:03;;;;;;;44.53;6.17;;;10.50;99.90;;;;;;5106676;28;20437;-76
2022/10/03 04:47:54;;;;;;;61.17;4.97;;;10.40;99.90;;;;;;5108427;28;20881;-76
2022/10/03 04:50:45;;;;;;;32.33;6.03;;;10.40;99.90;;;;;;5102709;28;20946;-75
2022/10/03 04:53:47;;;;;;;14.70;5.77;;;10.30;99.90;;;;;;5099690;28;20470;-76
2022/10/03 04:56:42;;;;;;;5.50;4.93;;;10.20;99.90;;;;;;5119878;28;20931;-76
2022/10/03 04:59:42;;;;;;;10.23;4.40;;;10.20;99.90;;;;;;5110474;28;20464;-76
2022/10/03 05:02:54;;;;;;;7.20;4.37;;;10.30;99.90;;;;;;5110790;28;20465;-76
2022/10/03 05:05:54;;;;;;;5.90;4.20;;;10.30;99.90;;;;;;5105433;28;20476;-76
2022/10/03 05:08:47;;;;;;;10.70;4.33;;;10.30;99.90;;;;;;5108565;28;20981;-75
2022/10/03 05:11:53;;;;;;;6.73;5.50;;;10.40;99.90;;;;;;5106861;28;20444;-76
2022/10/03 05:15:01;;;;;;;4.27;3.87;;;10.50;99.90;;;;;;5104684;28;20449;-75
2022/10/03 05:17:57;;;;;;;9.93;4.97;;;10.40;99.90;;;;;;5119384;28;20799;-75
2022/10/03 05:20:52;;;;;;;5.47;4.87;;;10.50;99.90;;;;;;5111094;28;20412;-76
2022/10/03 05:23:52;;;;;;;11.17;6.03;;;10.40;99.90;;;;;;5100634;28;20572;-75
2022/10/03 05:26:46;;;;;;;8.23;5.93;;;10.50;99.90;;;;;;5107441;28;20815;-75
2022/10/03 05:29:39;;;;;;;10.40;5.30;;;10.50;99.90;;;;;;5102456;28;20443;-76
2022/10/03 05:32:30;;;;;;;14.90;5.90;;;10.50;99.90;;;;;;5106138;28;20548;-76
2022/10/03 05:35:29;;;;;;;8.87;5.30;;;10.50;99.90;;;;;;5109756;28;20436;-76
2022/10/03 05:38:40;;;;;;;9.93;5.60;;;10.50;99.90;;;;;;5114093;28;20518;-76
2022/10/03 05:41:29;;;;;;;11.13;5.70;;;10.60;99.90;;;;;;5110318;28;20443;-76
2022/10/03 05:44:18;;;;;;;9.27;6.10;;;10.50;99.90;;;;;;5096979;28;20853;-76
2022/10/03 05:47:43;;;;;;;10.43;6.33;;;10.40;99.90;;;;;;5114195;27;20399;-76
2022/10/03 05:50:49;;;;;;;10.20;6.60;;;10.40;99.90;;;;;;5116783;27;20439;-76
2022/10/03 05:54:08;;;;;;;11.53;7.00;;;10.40;99.90;;;;;;5080935;27;20419;-76
2022/10/03 05:57:28;;;;;;;149.10;10.00;;;10.40;99.90;;;;;;5107538;27;20812;-76
2022/10/03 06:00:20;;;;;;;69.40;8.37;;;10.40;99.90;;;;;;5062891;27;20538;-76
2022/10/03 06:03:40;;;;;;;30.73;8.50;;;10.00;99.90;;;;;;5107313;27;20407;-76
2022/10/03 06:06:40;;;;;;;8.77;6.87;;;9.80;99.90;;;;;;5120434;27;20503;-76
2022/10/03 06:09:59;;;;;;;9.90;7.70;;;9.80;99.90;;;;;;5119420;27;20964;-76
2022/10/03 06:12:56;;;;;;;11.90;7.37;;;9.90;99.90;;;;;;5103452;27;20461;-75
2022/10/03 06:15:58;;;;;;;24.57;8.40;;;10.10;99.90;;;;;;5109208;27;20445;-76
2022/10/03 06:19:06;;;;;;;32.33;7.73;;;10.20;99.90;;;;;;5117195;27;20585;-76
2022/10/03 06:22:25;;;;;;;18.73;7.70;;;10.30;99.90;;;;;;5110693;27;20428;-76
2022/10/03 06:25:56;;;;;;;11.17;7.90;;;10.30;99.90;;;;;;5118007;27;20556;-76
2022/10/03 06:29:11;;;;;;;32.33;7.70;;;10.30;99.90;;;;;;5118993;27;20468;-76
2022/10/03 06:32:21;;;;;;;9.40;7.43;;;10.30;99.90;;;;;;5111051;27;20618;-76
2022/10/03 06:35:41;;;;;;;58.17;7.93;;;10.40;99.90;;;;;;5105685;27;20523;-76
2022/10/03 06:39:04;;;;;;;91.47;7.53;;;10.40;99.90;;;;;;5122629;27;20820;-76
2022/10/03 06:42:31;;;;;;;25.73;7.23;;;10.20;99.90;;;;;;5112081;27;20415;-76
2022/10/03 06:45:56;;;;;;;173.53;10.00;;;10.10;99.90;;;;;;5106117;27;20951;-76
2022/10/03 06:49:30;;;;;;;232.50;10.20;;;10.10;99.90;;;;;;5083431;27;20464;-76
2022/10/03 06:53:06;;;;;;;67.23;7.60;;;10.20;99.90;;;;;;5108225;28;20546;-76
2022/10/03 06:56:30;;;;;;;6.60;5.90;;;10.40;99.90;;;;;;5027552;28;20500;-76
2022/10/03 06:59:54;;;;;;;63.17;8.50;;;10.50;99.90;;;;;;5118249;27;20488;-76
2022/10/03 07:03:26;;;;;;;141.10;8.73;;;10.70;99.90;;;;;;5098333;27;20537;-76
2022/10/03 07:06:39;;;;;;;46.40;8.80;;;10.80;99.90;;;;;;5115161;28;20451;-76
2022/10/03 07:10:11;;;;;;;12.40;7.30;;;10.90;99.90;;;;;;5125006;27;20419;-76
2022/10/03 07:13:19;;;;;;;11.33;7.60;;;11.00;99.90;;;;;;5118457;27;20503;-76
2022/10/03 07:16:40;;;;;;;12.70;8.77;;;11.10;99.90;;;;;;5138296;27;20805;-76
2022/10/03 07:20:10;;;;;;;107.33;10.20;;;11.10;99.90;;;;;;5111786;28;20849;-76
2022/10/03 07:23:26;;;;;;;65.60;7.47;;;11.20;99.90;;;;;;5037720;28;20420;-76
2022/10/03 07:27:03;;;;;;;50.50;8.37;;;11.20;99.90;;;;;;5133351;27;20433;-76
2022/10/03 07:30:05;;;;;;;13.40;5.83;;;11.20;99.90;;;;;;5121328;27;20465;-76
2022/10/03 07:33:40;;;;;;;18.33;6.40;;;11.40;99.90;;;;;;5114612;27;20547;-76
2022/10/03 07:40:12;;;;;;;11.27;6.13;;;11.60;99.90;;;;;;5115576;27;20466;-76
2022/10/03 07:43:36;;;;;;;22.27;5.87;;;11.70;99.90;;;;;;5114728;27;20416;-76
2022/10/03 07:46:59;;;;;;;9.27;6.20;;;11.70;99.90;;;;;;5118242;27;20530;-76
2022/10/03 07:50:26;;;;;;;8.30;6.77;;;11.80;99.90;;;;;;5122271;27;20450;-76
2022/10/03 07:53:28;;;;;;;18.97;7.20;;;11.90;99.90;;;;;;5120683;27;20585;-76
2022/10/03 07:56:35;;;;;;;14.00;7.83;;;11.90;99.90;;;;;;5128420;27;20416;-75
2022/10/03 08:00:08;;;;;;;18.67;8.10;;;12.00;99.90;;;;;;5120096;27;20467;-76
2022/10/03 08:03:43;;;;;;;9.30;7.27;;;12.10;99.90;;;;;;5118620;27;20475;-76
2022/10/03 08:06:41;;;;;;;16.53;9.40;;;12.10;99.90;;;;;;5114778;27;20523;-76
2022/10/03 08:09:44;;;;;;;12.23;8.03;;;12.20;99.90;;;;;;5112328;27;20840;-76
2022/10/03 08:13:14;;;;;;;14.67;7.87;;;12.30;99.90;;;;;;5111851;27;20511;-76
2022/10/03 08:16:16;;;;;;;12.60;9.20;;;12.30;99.90;;;;;;5111536;28;20556;-76
2022/10/03 08:19:17;;;;;;;14.87;8.93;;;12.40;99.90;;;;;;5122959;27;20485;-76
2022/10/03 08:22:15;;;;;;;12.90;9.03;;;12.50;99.90;;;;;;5127402;27;20995;-76
2022/10/03 08:25:27;;;;;;;17.00;10.00;;;12.70;99.90;;;;;;5123597;27;21092;-76
2022/10/03 08:28:37;;;;;;;15.40;9.47;;;12.90;99.90;;;;;;5130995;27;20500;-76
2022/10/03 08:31:52;;;;;;;12.57;9.97;;;13.10;99.90;;;;;;5110704;27;20425;-76
2022/10/03 08:35:04;;;;;;;16.43;10.30;;;13.20;99.90;;;;;;5118112;27;20457;-76
2022/10/03 08:38:26;;;;;;;16.30;11.60;;;13.40;99.90;;;;;;5125453;27;20424;-76
2022/10/03 08:41:55;;;;;;;19.47;10.53;;;13.60;99.90;;;;;;5098925;28;20413;-75
2022/10/03 08:44:58;;;;;;;17.93;9.00;;;13.60;99.90;;;;;;5116350;28;20962;-76
2022/10/03 08:48:17;;;;;;;16.53;9.83;;;13.70;99.90;;;;;;5115342;28;20799;-76
2022/10/03 08:51:25;;;;;;;15.90;8.60;;;13.90;99.90;;;;;;5126344;28;20476;-76
2022/10/03 08:54:36;;;;;;;18.40;8.23;;;14.00;99.90;;;;;;5126333;28;20527;-76
2022/10/03 08:57:46;;;;;;;18.03;7.93;;;14.20;99.90;;;;;;5121235;28;20403;-76
2022/10/03 09:00:57;;;;;;;10.57;7.97;;;14.40;99.90;;;;;;5116267;28;20948;-76
2022/10/03 09:04:28;;;;;;;14.17;8.80;;;14.50;99.90;;;;;;5114724;28;20420;-77
2022/10/03 09:07:37;;;;;;;12.53;7.37;;;14.70;99.90;;;;;;5132373;28;20476;-75
2022/10/03 09:10:36;;;;;;;11.17;8.03;;;14.80;99.90;;;;;;5133785;28;20953;-76
2022/10/03 09:13:56;;;;;;;17.17;7.57;;;14.90;99.90;;;;;;5118760;28;20451;-76
2022/10/03 09:17:01;;;;;;;18.27;8.53;;;15.10;99.90;;;;;;5118511;28;20456;-76
2022/10/03 09:20:28;;;;;;;15.50;7.67;;;15.30;99.90;;;;;;5132247;28;20467;-75
2022/10/03 09:23:42;;;;;;;11.33;5.40;;;15.40;99.90;;;;;;5113581;27;20443;-76
2022/10/03 09:27:02;;;;;;;12.93;6.07;;;15.50;99.90;;;;;;5120820;27;20424;-75
2022/10/03 09:30:23;;;;;;;18.33;7.23;;;15.60;99.90;;;;;;5124976;27;20414;-76
2022/10/03 09:33:41;;;;;;;12.03;5.43;;;15.70;99.90;;;;;;5109911;27;21202;-76
2022/10/03 09:37:03;;;;;;;11.80;5.83;;;15.70;99.90;;;;;;5122499;27;20435;-76
2022/10/03 09:40:18;;;;;;;16.90;6.70;;;15.60;99.90;;;;;;5122174;27;20828;-76
2022/10/03 09:43:56;;;;;;;16.50;5.80;;;15.20;99.90;;;;;;5111642;27;20539;-74
2022/10/03 09:47:25;;;;;;;9.10;5.03;;;14.90;99.90;;;;;;5037370;28;20468;-74
2022/10/03 09:50:45;;;;;;;13.53;5.93;;;14.70;99.90;;;;;;5129652;27;20441;-74
2022/10/03 09:54:03;;;;;;;12.57;5.87;;;14.60;99.90;;;;;;5111873;27;20846;-74
2022/10/03 09:57:28;;;;;;;12.43;5.57;;;14.50;99.90;;;;;;5114329;27;20408;-74
2022/10/03 10:00:26;;;;;;;14.60;6.20;;;14.40;99.90;;;;;;5111133;27;21077;-74
2022/10/03 10:04:16;;;;;;;17.77;6.57;;;14.40;99.90;;;;;;5115174;27;20446;-73
2022/10/03 10:07:35;;;;;;;14.60;5.97;;;14.30;99.90;;;;;;5032437;28;20483;-74
2022/10/03 10:10:58;;;;;;;12.30;5.53;;;14.20;99.90;;;;;;5099620;27;20438;-73
2022/10/03 10:14:21;;;;;;;14.43;5.50;;;14.30;99.90;;;;;;5119758;27;20533;-74
2022/10/03 10:17:50;;;;;;;14.07;5.10;;;14.40;99.90;;;;;;5109455;27;20540;-74
2022/10/03 10:21:19;;;;;;;10.03;4.70;;;14.40;99.90;;;;;;5116413;27;20529;-73
2022/10/03 10:24:36;;;;;;;10.50;3.60;;;14.50;99.90;;;;;;5127275;27;20424;-74
2022/10/03 10:27:54;;;;;;;10.23;4.70;;;14.70;99.90;;;;;;5119624;27;20440;-74
2022/10/03 10:31:09;;;;;;;13.90;5.20;;;14.70;99.90;;;;;;5112999;27;20942;-74
2022/10/03 10:34:29;;;;;;;10.63;6.60;;;15.00;99.90;;;;;;5118634;27;20465;-74
2022/10/03 10:38:12;;;;;;;12.90;5.30;;;15.10;99.90;;;;;;5115182;27;21000;-74
2022/10/03 10:41:50;;;;;;;8.33;4.40;;;15.10;99.90;;;;;;5030965;28;20515;-75
2022/10/03 10:45:09;;;;;;;9.23;4.40;;;15.00;99.90;;;;;;5027865;28;20425;-74
2022/10/03 10:48:36;;;;;;;11.67;4.27;;;14.90;99.90;;;;;;5098376;27;21387;-75
2022/10/03 10:52:03;;;;;;;16.93;5.10;;;15.00;99.90;;;;;;5099412;27;20522;-75
2022/10/03 10:55:20;;;;;;;13.53;4.20;;;15.10;99.90;;;;;;5113368;27;20449;-75
2022/10/03 10:58:49;;;;;;;8.63;4.47;;;15.00;99.90;;;;;;5109095;27;20473;-75
2022/10/03 11:02:21;;;;;;;9.83;4.10;;;15.10;99.90;;;;;;5128869;27;20393;-75
2022/10/03 11:05:48;;;;;;;8.17;3.50;;;15.10;99.90;;;;;;5116567;27;20464;-75
2022/10/03 11:09:07;;;;;;;7.50;3.37;;;15.10;99.90;;;;;;5105141;27;20836;-75
2022/10/03 11:12:23;;;;;;;8.30;3.40;;;15.00;99.90;;;;;;5117382;27;20452;-76
2022/10/03 11:15:57;;;;;;;11.90;3.90;;;15.10;99.90;;;;;;5121513;27;20511;-75
2022/10/03 11:19:10;;;;;;;12.10;3.90;;;15.10;99.90;;;;;;5109385;27;20509;-75
2022/10/03 11:22:30;;;;;;;10.67;4.30;;;15.20;99.90;;;;;;5120504;27;20421;-75
2022/10/03 11:25:50;;;;;;;10.13;4.57;;;15.30;99.90;;;;;;5133520;27;20474;-75
2022/10/03 11:29:26;;;;;;;10.07;3.23;;;15.30;99.90;;;;;;5106582;27;20467;-75
2022/10/03 11:32:54;;;;;;;6.97;3.20;;;15.40;99.90;;;;;;5041264;27;20817;-75
2022/10/03 11:36:27;;;;;;;8.13;2.83;;;15.50;99.90;;;;;;5113261;27;20933;-75
2022/10/03 11:39:22;;;;;;;6.93;3.83;;;15.70;99.90;;;;;;5124852;27;20510;-75
2022/10/03 11:42:22;;;;;;;8.30;3.97;;;16.00;99.90;;;;;;5103124;27;20481;-74
2022/10/03 11:45:17;;;;;;;5.13;2.20;;;16.10;99.90;;;;;;5125351;27;20429;-73
2022/10/03 11:48:26;;;;;;;14.97;3.37;;;16.40;99.90;;;;;;5119612;27;20572;-75
2022/10/03 11:51:15;;;;;;;8.13;3.70;;;16.30;99.90;;;;;;5106427;27;20936;-73
2022/10/03 11:54:09;;;;;;;11.63;3.40;;;16.20;99.90;;;;;;5103423;27;20868;-75
2022/10/03 11:57:01;;;;;;;5.40;2.60;;;16.20;99.90;;;;;;5103857;27;20420;-75
2022/10/03 11:59:59;;;;;;;9.87;3.10;;;16.10;99.90;;;;;;5118225;27;20452;-75
2022/10/03 12:03:12;;;;;;;7.73;3.00;;;16.10;99.90;;;;;;5103942;27;20407;-75
2022/10/03 12:09:20;;;;;;;10.73;4.00;;;16.20;99.90;;;;;;5124533;27;20950;-75
2022/10/03 12:12:12;;;;;;;5.47;2.90;;;16.20;99.90;;;;;;5127237;27;20492;-76
2022/10/03 12:15:10;;;;;;;4.40;2.47;;;16.20;99.90;;;;;;5126997;27;20506;-75
2022/10/03 12:18:05;;;;;;;8.17;3.37;;;16.20;99.90;;;;;;5108694;27;20425;-75
2022/10/03 12:21:06;;;;;;;6.57;3.20;;;16.40;99.90;;;;;;5109519;22;20464;-78
2022/10/03 12:24:17;;;;;;;6.87;3.50;;;16.50;99.90;;;;;;5073869;28;20917;-80
2022/10/03 12:27:13;;;;;;;6.60;3.00;;;16.70;99.90;;;;;;5066212;28;20472;-76
2022/10/03 12:30:05;;;;;;;7.57;3.87;;;16.90;99.90;;;;;;5067814;28;20424;-77
2022/10/03 12:33:15;;;;;;;5.47;2.30;;;17.10;99.90;;;;;;5080694;28;20534;-77
2022/10/03 12:36:10;;;;;;;6.90;3.00;;;17.30;99.90;;;;;;5068681;28;20443;-76
2022/10/03 12:39:14;;;;;;;7.73;2.77;;;17.20;99.90;;;;;;5069455;28;20400;-75
2022/10/03 12:42:19;;;;;;;7.37;2.80;;;17.20;99.90;;;;;;5065941;28;20489;-76
2022/10/03 12:45:18;;;;;;;11.30;3.63;;;17.50;99.90;;;;;;5066301;28;20425;-76
2022/10/03 12:48:33;;;;;;;7.30;2.40;;;17.80;97.80;;;;;;5067992;28;20459;-76
2022/10/03 12:51:44;;;;;;;6.43;2.80;;;18.00;91.80;;;;;;5074161;28;20536;-76
2022/10/03 12:54:45;;;;;;;6.97;2.30;;;18.30;93.50;;;;;;5064327;28;21093;-77
2022/10/03 12:57:52;;;;;;;9.07;2.70;;;18.50;87.20;;;;;;5070526;28;20429;-77
2022/10/03 13:00:46;;;;;;;6.10;2.80;;;18.60;81.60;;;;;;5077122;28;20444;-77
2022/10/03 13:03:43;;;;;;;12.00;2.70;;;18.50;79.20;;;;;;5071039;28;20438;-77
2022/10/03 13:06:54;;;;;;;2.77;2.00;;;18.20;76.30;;;;;;5067555;28;20445;-77
2022/10/03 13:10:06;;;;;;;14.37;2.80;;;18.20;87.90;;;;;;5070236;28;20588;-77
2022/10/03 13:12:54;;;;;;;6.27;2.37;;;18.20;82.40;;;;;;5070554;28;20569;-77
2022/10/03 13:15:55;;;;;;;6.50;2.47;;;18.30;85.10;;;;;;5062192;28;20801;-77
2022/10/03 13:18:52;;;;;;;7.33;2.40;;;18.30;86.00;;;;;;5078024;28;20425;-77
2022/10/03 13:22:02;;;;;;;6.03;2.50;;;18.50;85.70;;;;;;5070935;28;20852;-77
2022/10/03 13:24:56;;;;;;;6.83;2.30;;;18.60;82.50;;;;;;5066795;28;20446;-77
2022/10/03 13:27:47;;;;;;;8.90;2.37;;;18.50;77.00;;;;;;5071507;28;20818;-77
2022/10/03 13:30:45;;;;;;;7.07;2.30;;;18.40;79.80;;;;;;5074935;28;20448;-77
2022/10/03 13:33:38;;;;;;;9.10;2.70;;;18.30;82.50;;;;;;5073139;28;20596;-77
2022/10/03 13:36:30;;;;;;;9.13;2.40;;;18.30;80.60;;;;;;5065256;28;20493;-77
2022/10/03 13:39:22;;;;;;;6.43;2.33;;;18.00;80.00;;;;;;5072671;28;21114;-77
2022/10/03 13:42:14;;;;;;;5.87;2.10;;;17.80;78.30;;;;;;5079613;28;20741;-77
2022/10/03 13:45:03;;;;;;;8.23;2.60;;;17.60;84.10;;;;;;5072926;28;20423;-77
2022/10/03 13:47:54;;;;;;;7.10;2.50;;;17.80;89.70;;;;;;5069579;28;20410;-77
2022/10/03 13:50:49;;;;;;;6.70;2.70;;;18.10;86.20;;;;;;5070275;28;20425;-77
2022/10/03 13:53:51;;;;;;;5.90;2.50;;;18.20;86.00;;;;;;5070563;28;20539;-77
2022/10/03 13:56:55;;;;;;;9.07;2.77;;;18.20;82.40;;;;;;5067539;28;20420;-77
2022/10/03 13:59:57;;;;;;;5.90;1.90;;;18.30;79.60;;;;;;5073943;28;21023;-78
2022/10/03 14:02:58;;;;;;;4.30;2.40;;;18.10;77.60;;;;;;5067836;28;20488;-77
2022/10/03 14:06:14;;;;;;;7.60;2.30;;;18.10;80.20;;;;;;5063096;28;20817;-77
2022/10/03 14:09:27;;;;;;;8.10;3.33;;;18.20;85.10;;;;;;5065696;28;20955;-77
2022/10/03 14:12:22;;;;;;;10.10;2.50;;;18.00;82.30;;;;;;5072181;28;20450;-77
2022/10/03 14:15:26;;;;;;;11.00;2.97;;;17.60;83.30;;;;;;5062376;28;20716;-77
2022/10/03 14:18:29;;;;;;;10.67;2.57;;;17.20;87.10;;;;;;5070639;28;20441;-77
2022/10/03 14:21:49;;;;;;;6.00;2.80;;;17.00;92.60;;;;;;5068832;28;20448;-79
2022/10/03 14:24:48;;;;;;;8.13;2.43;;;17.10;94.50;;;;;;5063595;28;20413;-78
2022/10/03 14:27:55;;;;;;;5.17;2.67;;;17.30;95.40;;;;;;5061273;28;20811;-78
2022/10/03 14:30:51;;;;;;;9.50;3.20;;;17.50;97.00;;;;;;5065593;28;20440;-78
2022/10/03 14:33:45;;;;;;;11.37;3.37;;;17.60;96.40;;;;;;5072806;28;20425;-77
2022/10/03 14:36:39;;;;;;;10.07;2.80;;;17.40;96.00;;;;;;5071716;28;20452;-77
2022/10/03 14:39:35;;;;;;;7.33;2.60;;;17.30;98.10;;;;;;5067683;28;20445;-78
2022/10/03 14:42:33;;;;;;;4.47;2.30;;;17.10;96.90;;;;;;5068607;28;20988;-77
2022/10/03 14:45:25;;;;;;;8.23;2.73;;;17.10;93.80;;;;;;5066960;28;20917;-77
2022/10/03 14:48:17;;;;;;;8.63;2.90;;;17.10;99.30;;;;;;5063140;28;20435;-78
2022/10/03 14:51:12;;;;;;;7.80;2.47;;;17.30;99.90;;;;;;5064362;28;20483;-80
2022/10/03 14:54:01;;;;;;;16.17;2.40;;;17.50;99.90;;;;;;5064987;28;20465;-80
2022/10/03 14:56:50;;;;;;;8.70;2.83;;;17.70;99.90;;;;;;5071840;28;20564;-80
2022/10/03 14:59:36;;;;;;;10.93;2.77;;;17.90;99.90;;;;;;5072842;28;20973;-80
2022/10/03 15:02:30;;;;;;;10.00;3.20;;;18.20;98.90;;;;;;5064246;28;20456;-80
2022/10/03 15:05:23;;;;;;;14.07;3.07;;;18.50;92.60;;;;;;5086621;28;20423;-79
2022/10/03 15:08:15;;;;;;;6.83;2.70;;;18.60;86.50;;;;;;5064789;28;20873;-79
2022/10/03 15:11:03;;;;;;;10.27;3.70;;;18.60;78.20;;;;;;5069202;28;20486;-79
2022/10/03 15:13:55;;;;;;;9.20;3.60;;;18.50;77.10;;;;;;5068067;28;20484;-79
2022/10/03 15:16:46;;;;;;;7.60;2.90;;;18.00;74.30;;;;;;5065966;28;20525;-80
2022/10/03 15:19:40;;;;;;;5.43;2.43;;;17.70;77.90;;;;;;5066771;28;20422;-78
2022/10/03 15:22:32;;;;;;;4.73;2.50;;;17.50;78.30;;;;;;5058022;28;20418;-78
2022/10/03 15:25:21;;;;;;;6.97;3.13;;;17.60;93.80;;;;;;5077629;28;20423;-79
2022/10/03 15:28:11;;;;;;;13.63;3.23;;;17.70;97.80;;;;;;5070045;28;21006;-80
2022/10/03 15:31:11;;;;;;;5.50;2.77;;;17.80;97.70;;;;;;5067957;28;20991;-79
2022/10/03 15:33:58;;;;;;;6.30;2.73;;;17.90;94.00;;;;;;5067952;28;20716;-79
2022/10/03 15:36:48;;;;;;;6.93;2.20;;;18.00;86.40;;;;;;5065946;28;20424;-80
2022/10/03 15:39:36;;;;;;;4.83;2.53;;;18.00;79.30;;;;;;5071248;28;20445;-79
2022/10/03 15:42:24;;;;;;;5.73;2.80;;;17.90;82.20;;;;;;5065939;28;20442;-79
2022/10/03 15:45:19;;;;;;;6.53;2.43;;;17.90;87.00;;;;;;5061853;28;20409;-79
2022/10/03 15:48:12;;;;;;;7.60;3.07;;;17.80;85.70;;;;;;5064678;28;20409;-79
2022/10/03 15:50:58;;;;;;;9.50;3.77;;;17.60;84.10;;;;;;5064711;28;20586;-79
2022/10/03 15:53:49;;;;;;;10.60;2.90;;;17.50;85.90;;;;;;5061965;28;20836;-78
2022/10/03 15:56:39;;;;;;;9.87;3.33;;;17.40;87.50;;;;;;5067624;28;20492;-79
2022/10/03 15:59:29;;;;;;;10.73;2.90;;;17.20;92.90;;;;;;5067139;28;20443;-79
2022/10/03 16:02:19;;;;;;;7.13;2.90;;;17.10;91.80;;;;;;5073512;28;20472;-79
2022/10/03 16:05:14;;;;;;;5.77;2.70;;;17.00;97.00;;;;;;5074827;28;20431;-79
2022/10/03 16:08:06;;;;;;;8.70;2.80;;;16.90;99.90;;;;;;5067587;28;20439;-80
2022/10/03 16:11:04;;;;;;;7.07;3.77;;;16.80;99.90;;;;;;5063508;28;20441;-80
2022/10/03 16:14:08;;;;;;;10.00;3.13;;;16.70;99.90;;;;;;5067629;28;20424;-80
2022/10/03 16:16:57;;;;;;;7.47;2.97;;;16.50;99.90;;;;;;5061214;28;20428;-79